createdAt,value
2019-05-21T00:00:56.598Z,17.54
2019-05-21T00:01:56.631Z,17.57
2019-05-21T00:02:56.667Z,17.51
2019-05-21T00:03:56.704Z,17.46
2019-05-21T00:04:56.747Z,17.54
2019-05-21T00:05:56.779Z,17.49
2019-05-21T00:06:56.816Z,17.58
2019-05-21T00:07:56.855Z,17.58
2019-05-21T00:08:56.892Z,17.43
2019-05-21T00:09:56.992Z,17.42
2019-05-21T00:10:56.952Z,17.55
2019-05-21T00:11:57.018Z,17.45
2019-05-21T00:12:57.030Z,17.47
2019-05-21T00:13:57.075Z,17.43
2019-05-21T00:14:57.096Z,17.45
2019-05-21T00:15:57.132Z,17.40
2019-05-21T00:16:57.169Z,17.49
2019-05-21T00:17:57.201Z,17.47
2019-05-21T00:18:57.241Z,17.43
2019-05-21T00:19:57.267Z,17.39
2019-05-21T00:20:57.300Z,17.42
2019-05-21T00:21:57.332Z,17.42
2019-05-21T00:22:57.373Z,17.42
2019-05-21T00:23:57.416Z,17.38
2019-05-21T00:24:57.454Z,17.38
2019-05-21T00:25:57.481Z,17.39
2019-05-21T00:26:57.521Z,17.38
2019-05-21T00:27:57.556Z,17.38
2019-05-21T00:28:57.586Z,17.40
2019-05-21T00:29:57.622Z,17.32
2019-05-21T00:30:57.659Z,17.28
2019-05-21T00:31:57.693Z,17.33
2019-05-21T00:32:57.742Z,17.24
2019-05-21T00:33:57.766Z,17.30
2019-05-21T00:34:57.820Z,17.35
2019-05-21T00:35:57.837Z,17.25
2019-05-21T00:36:58.231Z,17.32
2019-05-21T00:37:57.905Z,17.22
2019-05-21T00:38:57.927Z,17.20
2019-05-21T00:39:57.961Z,17.32
2019-05-21T00:40:58.002Z,17.22
2019-05-21T00:41:58.035Z,17.28
2019-05-21T00:42:58.091Z,17.24
2019-05-21T00:43:58.119Z,17.33
2019-05-21T00:44:58.153Z,17.30
2019-05-21T00:45:58.184Z,17.22
2019-05-21T00:46:58.225Z,17.17
2019-05-21T00:47:58.252Z,17.18
2019-05-21T00:48:58.293Z,17.21
2019-05-21T00:49:58.321Z,17.24
2019-05-21T00:50:58.359Z,17.21
2019-05-21T00:52:06.939Z,17.21
2019-05-21T00:52:58.437Z,17.09
2019-05-21T00:53:58.471Z,17.22
2019-05-21T00:54:58.500Z,17.06
2019-05-21T00:55:58.536Z,17.03
2019-05-21T00:56:58.577Z,17.10
2019-05-21T00:57:58.601Z,17.10
2019-05-21T00:58:58.643Z,17.05
2019-05-21T00:59:58.678Z,17.07
2019-05-21T01:00:58.703Z,17.07
2019-05-21T01:01:58.733Z,16.96
2019-05-21T01:02:58.775Z,17.07
2019-05-21T01:03:58.814Z,17.02
2019-05-21T01:05:36.821Z,17.03
2019-05-21T01:05:58.883Z,16.96
2019-05-21T01:06:58.925Z,16.98
2019-05-21T01:07:58.954Z,16.98
2019-05-21T01:08:58.999Z,16.98
2019-05-21T01:09:59.015Z,16.96
2019-05-21T01:10:59.057Z,16.98
2019-05-21T01:11:59.092Z,16.98
2019-05-21T01:12:59.126Z,16.95
2019-05-21T01:13:59.162Z,16.92
2019-05-21T01:14:59.201Z,16.99
2019-05-21T01:15:59.231Z,16.91
2019-05-21T01:16:59.269Z,16.92
2019-05-21T01:17:59.303Z,16.90
2019-05-21T01:18:59.340Z,16.88
2019-05-21T01:19:59.358Z,16.92
2019-05-21T01:20:59.398Z,16.81
2019-05-21T01:21:59.448Z,16.87
2019-05-21T01:22:59.470Z,16.87
2019-05-21T01:23:59.507Z,16.81
2019-05-21T01:24:59.542Z,16.78
2019-05-21T01:25:59.582Z,16.75
2019-05-21T01:26:59.614Z,16.81
2019-05-21T01:27:59.650Z,16.82
2019-05-21T01:28:59.734Z,16.82
2019-05-21T01:29:59.719Z,16.87
2019-05-21T01:30:59.757Z,16.81
2019-05-21T01:31:59.786Z,16.87
2019-05-21T01:32:59.824Z,16.70
2019-05-21T01:33:59.863Z,16.77
2019-05-21T01:35:14.613Z,16.78
2019-05-21T01:35:59.932Z,16.77
2019-05-21T01:36:59.969Z,16.78
2019-05-21T01:37:59.996Z,16.73
2019-05-21T01:39:00.034Z,16.81
2019-05-21T01:40:00.068Z,16.72
2019-05-21T01:41:00.108Z,16.65
2019-05-21T01:42:00.125Z,16.69
2019-05-21T01:43:03.217Z,16.70
2019-05-21T01:44:00.205Z,16.69
2019-05-21T01:45:00.257Z,16.75
2019-05-21T01:46:00.274Z,16.60
2019-05-21T01:47:00.314Z,16.69
2019-05-21T01:48:00.344Z,16.70
2019-05-21T01:49:00.384Z,16.67
2019-05-21T01:50:00.415Z,16.70
2019-05-21T01:51:00.456Z,16.66
2019-05-21T01:52:00.481Z,16.66
2019-05-21T01:53:00.521Z,16.69
2019-05-21T01:54:00.558Z,16.60
2019-05-21T01:55:00.594Z,16.54
2019-05-21T01:56:00.622Z,16.57
2019-05-21T01:57:00.655Z,16.52
2019-05-21T01:58:00.700Z,16.60
2019-05-21T01:59:00.729Z,16.51
2019-05-21T02:00:00.761Z,16.52
2019-05-21T02:01:00.789Z,16.52
2019-05-21T02:02:00.823Z,16.52
2019-05-21T02:03:00.856Z,16.47
2019-05-21T02:04:00.919Z,16.48
2019-05-21T02:05:00.938Z,16.51
2019-05-21T02:06:00.969Z,16.55
2019-05-21T02:07:01.001Z,16.48
2019-05-21T02:08:01.038Z,16.44
2019-05-21T02:09:01.075Z,16.45
2019-05-21T02:10:01.120Z,16.44
2019-05-21T02:11:01.163Z,16.42
2019-05-21T02:12:01.183Z,16.42
2019-05-21T02:13:01.214Z,16.40
2019-05-21T02:14:01.244Z,16.42
2019-05-21T02:15:01.283Z,16.41
2019-05-21T02:16:01.319Z,16.41
2019-05-21T02:17:01.355Z,16.42
2019-05-21T02:18:01.386Z,16.42
2019-05-21T02:19:01.440Z,16.45
2019-05-21T02:20:01.452Z,16.40
2019-05-21T02:21:01.493Z,16.37
2019-05-21T02:22:01.524Z,16.40
2019-05-21T02:23:01.549Z,16.42
2019-05-21T02:24:01.587Z,16.42
2019-05-21T02:25:01.628Z,16.42
2019-05-21T02:26:01.652Z,16.37
2019-05-21T02:27:01.696Z,16.34
2019-05-21T02:28:01.732Z,16.36
2019-05-21T02:29:01.782Z,16.33
2019-05-21T02:30:01.912Z,16.40
2019-05-21T02:31:01.829Z,16.40
2019-05-21T02:32:01.867Z,16.41
2019-05-21T02:33:01.907Z,16.37
2019-05-21T02:34:01.935Z,16.34
2019-05-21T02:35:01.970Z,16.37
2019-05-21T02:36:02.015Z,16.40
2019-05-21T02:37:05.879Z,16.40
2019-05-21T02:38:02.085Z,16.33
2019-05-21T02:39:02.116Z,16.25
2019-05-21T02:40:02.267Z,16.26
2019-05-21T02:41:02.178Z,16.23
2019-05-21T02:42:02.210Z,16.17
2019-05-21T02:43:02.251Z,16.22
2019-05-21T02:44:02.274Z,16.30
2019-05-21T02:45:02.332Z,16.16
2019-05-21T02:46:02.350Z,16.27
2019-05-21T02:47:02.385Z,16.22
2019-05-21T02:48:02.422Z,16.29
2019-05-21T02:49:02.451Z,16.22
2019-05-21T02:50:02.486Z,16.25
2019-05-21T02:51:02.519Z,16.22
2019-05-21T02:52:02.556Z,16.26
2019-05-21T02:53:02.591Z,16.17
2019-05-21T02:54:02.625Z,16.25
2019-05-21T02:55:02.668Z,16.22
2019-05-21T02:56:02.708Z,16.13
2019-05-21T02:57:02.730Z,16.17
2019-05-21T02:58:02.771Z,16.10
2019-05-21T02:59:02.812Z,16.18
2019-05-21T03:00:02.837Z,16.07
2019-05-21T03:01:02.858Z,16.13
2019-05-21T03:02:02.896Z,16.06
2019-05-21T03:03:03.029Z,16.06
2019-05-21T03:04:02.962Z,16.11
2019-05-21T03:05:10.120Z,16.07
2019-05-21T03:06:55.099Z,16.11
2019-05-21T03:07:55.128Z,16.01
2019-05-21T03:09:57.407Z,16.10
2019-05-21T03:10:57.420Z,15.95
2019-05-21T03:13:00.659Z,15.99
2019-05-21T03:14:00.687Z,16.07
2019-05-21T03:15:52.718Z,15.98
2019-05-21T03:16:52.723Z,15.96
2019-05-21T03:18:45.889Z,15.95
2019-05-21T03:19:45.906Z,15.96
2019-05-21T03:21:48.229Z,16.16
2019-05-21T03:22:48.257Z,15.96
2019-05-21T03:24:50.429Z,15.93
2019-05-21T03:25:50.466Z,16.03
2019-05-21T03:27:43.634Z,16.10
2019-05-21T03:28:43.652Z,16.04
2019-05-21T03:30:45.924Z,16.08
2019-05-21T03:31:45.940Z,15.96
2019-05-21T03:33:47.984Z,16.01
2019-05-21T03:34:48.008Z,15.91
2019-05-21T03:36:40.159Z,15.98
2019-05-21T03:37:40.191Z,16.04
2019-05-21T03:39:42.404Z,16.08
2019-05-21T03:40:42.401Z,16.04
2019-05-21T03:42:34.611Z,16.06
2019-05-21T03:43:34.641Z,16.01
2019-05-21T03:45:26.674Z,16.03
2019-05-21T03:46:26.691Z,15.96
2019-05-21T03:48:28.765Z,16.06
2019-05-21T03:49:28.795Z,16.08
2019-05-21T03:51:21.993Z,15.99
2019-05-21T03:52:22.006Z,15.98
2019-05-21T03:54:13.982Z,16.04
2019-05-21T03:55:14.011Z,16.08
2019-05-21T03:57:06.797Z,16.08
2019-05-21T03:58:06.798Z,16.08
2019-05-21T03:59:58.924Z,16.06
2019-05-21T04:00:58.950Z,16.10
2019-05-21T04:03:01.109Z,16.10
2019-05-21T04:04:01.137Z,16.11
2019-05-21T04:05:53.053Z,16.07
2019-05-21T04:06:53.082Z,16.18
2019-05-21T04:08:46.236Z,16.17
2019-05-21T04:09:46.269Z,16.08
2019-05-21T04:11:52.733Z,16.11
2019-05-21T04:12:48.415Z,16.22
2019-05-21T04:14:50.694Z,16.26
2019-05-21T04:15:50.691Z,16.27
2019-05-21T04:17:52.898Z,16.22
2019-05-21T04:18:52.921Z,16.26
2019-05-21T04:20:56.059Z,16.26
2019-05-21T04:21:56.057Z,16.33
2019-05-21T04:23:59.182Z,16.30
2019-05-21T04:24:59.213Z,16.30
2019-05-21T04:27:01.441Z,16.41
2019-05-21T04:28:01.470Z,16.34
2019-05-21T04:30:03.502Z,16.33
2019-05-21T04:31:03.528Z,16.40
2019-05-21T04:33:05.579Z,16.41
2019-05-21T04:34:05.577Z,16.45
2019-05-21T04:35:57.521Z,16.40
2019-05-21T04:37:10.022Z,16.40
2019-05-21T04:38:59.597Z,16.47
2019-05-21T04:39:59.606Z,16.48
2019-05-21T04:42:01.621Z,16.45
2019-05-21T04:43:02.345Z,16.45
2019-05-21T04:45:03.676Z,16.40
2019-05-21T04:46:03.706Z,16.48
2019-05-21T04:48:05.726Z,16.47
2019-05-21T04:49:05.755Z,16.54
2019-05-21T04:51:07.809Z,16.48
2019-05-21T04:52:07.804Z,16.55
2019-05-21T04:54:09.832Z,16.57
2019-05-21T04:55:09.853Z,16.55
2019-05-21T04:57:11.873Z,16.60
2019-05-21T04:58:11.904Z,16.50
2019-05-21T05:00:13.929Z,16.62
2019-05-21T05:01:13.960Z,16.60
2019-05-21T05:03:16.000Z,16.51
2019-05-21T05:04:21.243Z,16.54
2019-05-21T05:06:07.952Z,16.65
2019-05-21T05:07:07.982Z,16.62
2019-05-21T05:09:10.033Z,16.70
2019-05-21T05:10:10.034Z,16.66
2019-05-21T05:12:12.051Z,16.70
2019-05-21T05:13:12.083Z,16.69
2019-05-21T05:15:14.101Z,16.73
2019-05-21T05:16:14.131Z,16.80
2019-05-21T05:18:16.156Z,16.72
2019-05-21T05:19:16.183Z,16.84
2019-05-21T05:20:16.225Z,16.84
2019-05-21T05:21:16.253Z,16.87
2019-05-21T05:22:16.287Z,16.77
2019-05-21T05:23:16.321Z,16.85
2019-05-21T05:24:16.358Z,16.90
2019-05-21T05:25:16.392Z,16.91
2019-05-21T05:26:16.425Z,16.90
2019-05-21T05:27:16.458Z,16.91
2019-05-21T05:28:16.501Z,16.96
2019-05-21T05:29:16.527Z,16.96
2019-05-21T05:30:16.564Z,16.95
2019-05-21T05:31:16.603Z,16.96
2019-05-21T05:32:16.630Z,16.98
2019-05-21T05:33:16.668Z,16.95
2019-05-21T05:34:16.699Z,16.92
2019-05-21T05:35:16.733Z,16.95
2019-05-21T05:36:16.770Z,17.00
2019-05-21T05:37:16.802Z,17.00
2019-05-21T05:38:16.838Z,17.05
2019-05-21T05:39:16.871Z,17.03
2019-05-21T05:40:16.907Z,17.09
2019-05-21T05:41:16.940Z,17.06
2019-05-21T05:42:16.977Z,17.10
2019-05-21T05:43:20.436Z,17.03
2019-05-21T05:44:17.044Z,17.10
2019-05-21T05:45:17.077Z,17.14
2019-05-21T05:46:17.147Z,17.12
2019-05-21T05:47:17.200Z,17.18
2019-05-21T05:48:17.188Z,17.25
2019-05-21T05:49:17.218Z,17.17
2019-05-21T05:50:17.254Z,17.22
2019-05-21T05:51:17.285Z,17.30
2019-05-21T05:52:17.320Z,17.17
2019-05-21T05:53:17.354Z,17.21
2019-05-21T05:54:17.390Z,17.20
2019-05-21T05:55:17.422Z,17.27
2019-05-21T05:56:17.459Z,17.33
2019-05-21T05:57:17.492Z,17.25
2019-05-21T05:58:17.538Z,17.25
2019-05-21T05:59:17.562Z,17.38
2019-05-21T06:00:17.597Z,17.35
2019-05-21T06:01:17.633Z,17.38
2019-05-21T06:02:17.668Z,17.38
2019-05-21T06:03:17.705Z,17.39
2019-05-21T06:04:17.739Z,17.42
2019-05-21T06:05:17.770Z,17.43
2019-05-21T06:06:17.824Z,17.47
2019-05-21T06:07:17.839Z,17.49
2019-05-21T06:08:17.875Z,17.47
2019-05-21T06:09:17.910Z,17.51
2019-05-21T06:10:17.945Z,17.53
2019-05-21T06:11:17.979Z,17.55
2019-05-21T06:12:18.014Z,17.60
2019-05-21T06:13:18.054Z,17.60
2019-05-21T06:14:18.085Z,17.66
2019-05-21T06:15:18.117Z,17.60
2019-05-21T06:16:18.177Z,17.62
2019-05-21T06:17:18.188Z,17.60
2019-05-21T06:18:18.224Z,17.62
2019-05-21T06:19:18.255Z,17.71
2019-05-21T06:20:18.293Z,17.74
2019-05-21T06:21:18.336Z,17.65
2019-05-21T06:22:18.362Z,17.65
2019-05-21T06:23:18.398Z,17.74
2019-05-21T06:24:18.433Z,17.76
2019-05-21T06:25:18.646Z,17.68
2019-05-21T06:26:18.503Z,17.74
2019-05-21T06:27:18.538Z,17.73
2019-05-21T06:28:18.590Z,17.73
2019-05-21T06:29:18.635Z,17.66
2019-05-21T06:30:18.647Z,17.76
2019-05-21T06:31:18.676Z,17.70
2019-05-21T06:32:18.715Z,17.77
2019-05-21T06:33:18.745Z,17.79
2019-05-21T06:34:18.780Z,17.74
2019-05-21T06:35:18.816Z,17.89
2019-05-21T06:36:18.850Z,17.83
2019-05-21T06:37:18.950Z,17.83
2019-05-21T06:38:18.921Z,17.96
2019-05-21T06:39:18.955Z,17.89
2019-05-21T06:40:18.996Z,17.91
2019-05-21T06:41:19.025Z,17.96
2019-05-21T06:42:19.060Z,17.95
2019-05-21T06:43:19.095Z,17.95
2019-05-21T06:44:19.130Z,17.99
2019-05-21T06:45:19.165Z,18.02
2019-05-21T06:46:19.218Z,17.99
2019-05-21T06:47:19.238Z,18.16
2019-05-21T06:48:19.275Z,18.05
2019-05-21T06:49:19.307Z,18.14
2019-05-21T06:50:19.341Z,18.20
2019-05-21T06:51:19.380Z,18.23
2019-05-21T06:52:19.411Z,18.20
2019-05-21T06:53:19.461Z,18.23
2019-05-21T06:54:19.483Z,18.29
2019-05-21T06:55:19.530Z,18.32
2019-05-21T06:56:19.551Z,18.29
2019-05-21T06:57:19.587Z,18.42
2019-05-21T06:58:19.625Z,18.51
2019-05-21T06:59:19.659Z,18.42
2019-05-21T07:00:19.696Z,18.47
2019-05-21T07:01:27.664Z,18.46
2019-05-21T07:02:19.763Z,18.51
2019-05-21T07:03:19.799Z,18.56
2019-05-21T07:04:19.833Z,18.64
2019-05-21T07:05:19.868Z,18.66
2019-05-21T07:06:19.905Z,18.68
2019-05-21T07:07:19.941Z,18.60
2019-05-21T07:08:33.668Z,18.75
2019-05-21T07:09:20.010Z,18.78
2019-05-21T07:10:20.079Z,18.78
2019-05-21T07:11:20.082Z,18.79
2019-05-21T07:12:20.116Z,18.83
2019-05-21T07:13:20.152Z,18.76
2019-05-21T07:14:20.189Z,18.79
2019-05-21T07:15:20.221Z,18.78
2019-05-21T07:16:20.258Z,18.94
2019-05-21T07:17:20.293Z,18.86
2019-05-21T07:18:20.331Z,18.91
2019-05-21T07:19:20.364Z,18.94
2019-05-21T07:20:20.399Z,19.06
2019-05-21T07:21:20.436Z,19.07
2019-05-21T07:22:20.470Z,19.06
2019-05-21T07:23:20.506Z,19.06
2019-05-21T07:24:20.541Z,19.16
2019-05-21T07:25:20.577Z,19.15
2019-05-21T07:26:20.750Z,19.28
2019-05-21T07:27:20.651Z,19.25
2019-05-21T07:28:20.688Z,19.30
2019-05-21T07:29:20.722Z,19.34
2019-05-21T07:30:20.759Z,19.35
2019-05-21T07:31:20.790Z,19.38
2019-05-21T07:32:20.826Z,19.40
2019-05-21T07:33:20.864Z,19.49
2019-05-21T07:34:20.898Z,19.52
2019-05-21T07:35:20.936Z,19.55
2019-05-21T07:36:20.971Z,19.62
2019-05-21T07:37:21.017Z,19.58
2019-05-21T07:38:21.042Z,19.64
2019-05-21T07:39:21.078Z,19.75
2019-05-21T07:40:21.112Z,19.79
2019-05-21T07:41:21.150Z,19.80
2019-05-21T07:42:21.187Z,19.90
2019-05-21T07:43:21.234Z,19.95
2019-05-21T07:44:21.255Z,20.01
2019-05-21T07:45:21.293Z,20.05
2019-05-21T07:46:21.331Z,20.08
2019-05-21T07:47:21.362Z,20.15
2019-05-21T07:48:21.406Z,20.16
2019-05-21T07:49:21.435Z,20.16
2019-05-21T07:50:21.472Z,20.25
2019-05-21T07:51:21.506Z,20.31
2019-05-21T07:52:21.545Z,20.33
2019-05-21T07:53:21.580Z,20.38
2019-05-21T07:54:21.614Z,20.48
2019-05-21T07:55:21.651Z,20.56
2019-05-21T07:56:21.686Z,20.56
2019-05-21T07:57:21.726Z,20.71
2019-05-21T07:58:21.758Z,20.68
2019-05-21T07:59:21.796Z,20.75
2019-05-21T08:00:21.834Z,20.75
2019-05-21T08:01:21.870Z,20.75
2019-05-21T08:02:21.911Z,20.83
2019-05-21T08:03:21.941Z,20.85
2019-05-21T08:04:21.981Z,21.00
2019-05-21T08:05:22.022Z,20.97
2019-05-21T08:06:22.053Z,21.09
2019-05-21T08:07:22.086Z,21.01
2019-05-21T08:08:22.126Z,21.18
2019-05-21T08:09:22.160Z,21.19
2019-05-21T08:10:22.197Z,21.26
2019-05-21T08:11:22.231Z,21.26
2019-05-21T08:12:37.187Z,21.31
2019-05-21T08:13:22.305Z,21.37
2019-05-21T08:14:22.342Z,21.43
2019-05-21T08:15:22.379Z,21.45
2019-05-21T08:16:22.415Z,21.51
2019-05-21T08:17:22.451Z,21.55
2019-05-21T08:18:22.500Z,21.56
2019-05-21T08:19:22.547Z,21.58
2019-05-21T08:20:22.561Z,21.56
2019-05-21T08:21:22.601Z,21.59
2019-05-21T08:22:22.638Z,21.66
2019-05-21T08:23:22.674Z,21.63
2019-05-21T08:24:22.715Z,21.73
2019-05-21T08:25:22.746Z,21.83
2019-05-21T08:26:22.787Z,21.91
2019-05-21T08:27:22.820Z,21.91
2019-05-21T08:28:22.856Z,21.90
2019-05-21T08:29:22.896Z,21.86
2019-05-21T08:30:22.932Z,21.89
2019-05-21T08:31:22.966Z,22.02
2019-05-21T08:32:23.003Z,22.01
2019-05-21T08:33:23.043Z,21.98
2019-05-21T08:34:23.078Z,22.06
2019-05-21T08:35:23.115Z,21.96
2019-05-21T08:36:23.151Z,22.04
2019-05-21T08:37:23.190Z,22.05
2019-05-21T08:38:23.224Z,22.09
2019-05-21T08:39:28.825Z,22.17
2019-05-21T08:40:23.298Z,22.23
2019-05-21T08:41:23.336Z,22.31
2019-05-21T08:42:23.374Z,22.35
2019-05-21T08:43:23.410Z,22.35
2019-05-21T08:44:23.451Z,22.49
2019-05-21T08:45:23.485Z,22.54
2019-05-21T08:46:23.525Z,22.56
2019-05-21T08:47:23.601Z,22.69
2019-05-21T08:48:23.597Z,22.78
2019-05-21T08:49:23.633Z,22.82
2019-05-21T08:50:23.671Z,22.96
2019-05-21T08:51:23.712Z,23.07
2019-05-21T08:52:23.745Z,23.00
2019-05-21T08:53:23.784Z,23.09
2019-05-21T08:54:23.822Z,23.11
2019-05-21T08:55:23.857Z,23.03
2019-05-21T08:56:23.902Z,23.07
2019-05-21T08:57:23.947Z,23.00
2019-05-21T08:58:23.971Z,23.01
2019-05-21T08:59:24.013Z,22.99
2019-05-21T09:00:24.047Z,23.01
2019-05-21T09:01:24.089Z,22.97
2019-05-21T09:02:24.144Z,23.01
2019-05-21T09:03:24.162Z,23.01
2019-05-21T09:04:45.022Z,23.04
2019-05-21T09:05:30.795Z,23.06
2019-05-21T09:07:16.648Z,23.12
2019-05-21T09:08:16.655Z,23.25
2019-05-21T09:10:18.816Z,23.34
2019-05-21T09:11:18.850Z,23.34
2019-05-21T09:13:11.009Z,23.60
2019-05-21T09:14:11.017Z,23.68
2019-05-21T09:16:03.316Z,23.87
2019-05-21T09:17:03.338Z,24.00
2019-05-21T09:18:55.254Z,24.09
2019-05-21T09:19:55.291Z,24.09
2019-05-21T09:21:57.631Z,24.27
2019-05-21T09:22:57.666Z,24.29
2019-05-21T09:24:49.961Z,24.39
2019-05-21T09:25:49.972Z,24.41
2019-05-21T09:27:42.232Z,24.45
2019-05-21T09:28:42.254Z,24.61
2019-05-21T09:30:34.518Z,24.71
2019-05-21T09:31:34.530Z,24.83
2019-05-21T09:33:36.795Z,25.07
2019-05-21T09:34:48.181Z,25.04
2019-05-21T09:36:40.015Z,25.26
2019-05-21T09:37:40.032Z,25.38
2019-05-21T09:39:42.176Z,25.56
2019-05-21T09:40:42.194Z,25.60
2019-05-21T09:42:34.217Z,25.79
2019-05-21T09:43:34.227Z,25.82
2019-05-21T09:45:36.473Z,26.00
2019-05-21T09:46:36.508Z,26.03
2019-05-21T09:48:28.734Z,25.94
2019-05-21T09:49:28.743Z,25.89
2019-05-21T09:51:32.049Z,25.78
2019-05-21T09:52:31.969Z,25.71
2019-05-21T09:54:25.153Z,25.69
2019-05-21T09:55:25.178Z,25.71
2019-05-21T09:57:17.430Z,25.59
2019-05-21T09:58:17.442Z,25.59
2019-05-21T10:00:20.529Z,25.63
2019-05-21T10:01:20.558Z,25.63
2019-05-21T10:03:12.751Z,25.66
2019-05-21T10:04:12.770Z,25.67
2019-05-21T10:06:16.014Z,25.85
2019-05-21T10:07:16.051Z,25.93
2019-05-21T10:09:08.028Z,26.01
2019-05-21T10:10:08.064Z,25.91
2019-05-21T10:12:00.146Z,25.81
2019-05-21T10:13:00.186Z,25.79
2019-05-21T10:14:53.357Z,25.66
2019-05-21T10:15:53.390Z,25.60
2019-05-21T10:17:46.569Z,25.51
2019-05-21T10:18:46.602Z,25.57
2019-05-21T10:20:39.799Z,25.63
2019-05-21T10:21:39.813Z,25.67
2019-05-21T10:23:32.106Z,25.78
2019-05-21T10:24:32.127Z,25.83
2019-05-21T10:26:34.330Z,25.93
2019-05-21T10:27:34.368Z,26.01
2019-05-21T10:29:27.545Z,26.09
2019-05-21T10:30:27.576Z,26.27
2019-05-21T10:32:19.752Z,26.50
2019-05-21T10:33:19.790Z,26.49
2019-05-21T10:35:11.891Z,26.68
2019-05-21T10:36:11.925Z,26.79
2019-05-21T10:38:04.371Z,26.69
2019-05-21T10:39:04.401Z,26.56
2019-05-21T10:41:06.507Z,26.39
2019-05-21T10:42:06.560Z,26.35
2019-05-21T10:44:09.773Z,26.36
2019-05-21T10:45:09.804Z,26.27
2019-05-21T10:47:02.985Z,26.39
2019-05-21T10:48:03.008Z,26.46
2019-05-21T10:50:05.287Z,26.42
2019-05-21T10:51:05.331Z,26.38
2019-05-21T10:53:09.440Z,26.53
2019-05-21T10:54:09.427Z,26.59
2019-05-21T10:56:11.629Z,26.69
2019-05-21T10:57:11.666Z,26.75
2019-05-21T10:59:13.796Z,26.78
2019-05-21T11:00:13.857Z,26.78
2019-05-21T11:02:05.886Z,26.90
2019-05-21T11:03:05.926Z,26.96
2019-05-21T11:05:09.094Z,26.84
2019-05-21T11:06:10.575Z,26.84
2019-05-21T11:08:23.471Z,26.73
2019-05-21T11:09:12.344Z,26.66
2019-05-21T11:11:15.634Z,26.49
2019-05-21T11:12:15.595Z,26.42
2019-05-21T11:14:07.726Z,26.31
2019-05-21T11:15:07.738Z,26.24
2019-05-21T11:17:20.077Z,26.20
2019-05-21T11:18:20.108Z,26.16
2019-05-21T11:20:12.190Z,26.21
2019-05-21T11:21:12.227Z,26.17
2019-05-21T11:23:14.536Z,26.17
2019-05-21T11:24:14.721Z,26.16
2019-05-21T11:26:16.818Z,26.16
2019-05-21T11:27:16.854Z,26.21
2019-05-21T11:29:19.007Z,26.19
2019-05-21T11:30:19.079Z,26.29
2019-05-21T11:32:11.226Z,26.29
2019-05-21T11:33:11.232Z,26.31
2019-05-21T11:35:13.592Z,26.31
2019-05-21T11:36:13.622Z,26.35
2019-05-21T11:38:15.792Z,26.34
2019-05-21T11:39:15.769Z,26.28
2019-05-21T11:41:18.848Z,26.20
2019-05-21T11:42:18.872Z,26.20
2019-05-21T11:44:22.007Z,26.16
2019-05-21T11:45:31.508Z,26.09
2019-05-21T11:47:24.312Z,25.97
2019-05-21T11:48:24.350Z,25.96
2019-05-21T11:50:26.581Z,25.85
2019-05-21T11:51:26.574Z,25.86
2019-05-21T11:53:31.858Z,25.81
2019-05-21T11:54:29.728Z,25.75
2019-05-21T11:56:22.924Z,25.76
2019-05-21T11:57:22.945Z,25.81
2019-05-21T11:59:16.213Z,25.76
2019-05-21T12:00:16.153Z,25.83
2019-05-21T12:02:09.165Z,25.86
2019-05-21T12:03:09.204Z,25.90
2019-05-21T12:05:11.507Z,26.08
2019-05-21T12:06:11.469Z,26.13
2019-05-21T12:08:13.663Z,26.24
2019-05-21T12:09:13.694Z,26.17
2019-05-21T12:11:15.917Z,26.16
2019-05-21T12:12:15.857Z,26.20
2019-05-21T12:14:07.940Z,26.13
2019-05-21T12:15:07.978Z,26.13
2019-05-21T12:17:10.414Z,26.20
2019-05-21T12:18:10.328Z,26.24
2019-05-21T12:20:13.594Z,26.32
2019-05-21T12:21:13.642Z,26.36
2019-05-21T12:23:17.431Z,26.50
2019-05-21T12:24:17.438Z,26.49
2019-05-21T12:26:19.518Z,26.72
2019-05-21T12:27:19.553Z,26.73
2019-05-21T12:29:11.621Z,26.91
2019-05-21T12:30:11.666Z,27.05
2019-05-21T12:32:03.720Z,27.16
2019-05-21T12:33:03.786Z,27.25
2019-05-21T12:34:57.018Z,27.34
2019-05-21T12:35:56.993Z,27.43
2019-05-21T12:37:59.176Z,27.76
2019-05-21T12:39:13.163Z,27.74
2019-05-21T12:40:51.576Z,27.90
2019-05-21T12:41:51.577Z,27.90
2019-05-21T12:43:54.747Z,27.84
2019-05-21T12:44:54.782Z,27.83
2019-05-21T12:46:46.738Z,27.83
2019-05-21T12:47:49.941Z,27.76
2019-05-21T12:49:49.151Z,27.66
2019-05-21T12:50:49.183Z,27.68
2019-05-21T12:52:42.688Z,27.71
2019-05-21T12:53:42.711Z,27.76
2019-05-21T12:55:34.643Z,27.63
2019-05-21T12:56:34.683Z,27.71
2019-05-21T12:58:38.857Z,27.58
2019-05-21T12:59:38.864Z,27.62
2019-05-21T13:01:42.025Z,27.40
2019-05-21T13:02:42.052Z,27.39
2019-05-21T13:04:34.058Z,27.35
2019-05-21T13:05:34.092Z,27.45
2019-05-21T13:07:46.804Z,27.35
2019-05-21T13:08:46.837Z,27.25
2019-05-21T13:10:49.062Z,27.31
2019-05-21T13:11:49.094Z,27.31
2019-05-21T13:13:41.245Z,27.23
2019-05-21T13:14:41.170Z,27.03
2019-05-21T13:16:44.402Z,26.97
2019-05-21T13:17:44.441Z,26.90
2019-05-21T13:19:36.388Z,26.90
2019-05-21T13:20:36.448Z,26.96
2019-05-21T13:22:38.589Z,27.11
2019-05-21T13:23:38.684Z,27.20
2019-05-21T13:25:30.766Z,27.27
2019-05-21T13:26:30.778Z,27.28
2019-05-21T13:28:23.964Z,27.43
2019-05-21T13:29:23.999Z,27.48
2019-05-21T13:31:27.163Z,27.62
2019-05-21T13:32:27.138Z,27.68
2019-05-21T13:34:19.066Z,27.84
2019-05-21T13:35:19.101Z,27.83
2019-05-21T13:37:21.430Z,27.80
2019-05-21T13:38:21.472Z,27.83
2019-05-21T13:40:24.245Z,27.72
2019-05-21T13:41:24.284Z,27.76
2019-05-21T13:43:16.526Z,27.68
2019-05-21T13:44:16.536Z,27.68
2019-05-21T13:46:19.708Z,27.58
2019-05-21T13:47:19.758Z,27.55
2019-05-21T13:49:22.847Z,27.49
2019-05-21T13:50:22.883Z,27.38
2019-05-21T13:52:14.886Z,27.34
2019-05-21T13:53:14.921Z,27.30
2019-05-21T13:55:17.261Z,27.25
2019-05-21T13:56:17.353Z,27.21
2019-05-21T13:58:10.453Z,27.11
2019-05-21T13:59:10.496Z,27.08
2019-05-21T14:01:02.421Z,26.93
2019-05-21T14:02:02.474Z,26.98
2019-05-21T14:03:54.568Z,26.79
2019-05-21T14:04:54.616Z,26.83
2019-05-21T14:06:47.810Z,26.84
2019-05-21T14:07:47.843Z,26.71
2019-05-21T14:09:39.762Z,26.71
2019-05-21T14:10:39.803Z,26.69
2019-05-21T14:12:32.026Z,26.64
2019-05-21T14:13:31.924Z,26.59
2019-05-21T14:15:34.205Z,26.49
2019-05-21T14:16:34.974Z,26.60
2019-05-21T14:18:36.416Z,26.53
2019-05-21T14:19:36.466Z,26.51
2019-05-21T14:21:38.696Z,26.46
2019-05-21T14:22:38.730Z,26.41
2019-05-21T14:24:41.812Z,26.36
2019-05-21T14:25:41.834Z,26.41
2019-05-21T14:27:43.645Z,26.28
2019-05-21T14:28:34.811Z,26.39
2019-05-21T14:30:26.104Z,26.32
2019-05-21T14:31:26.108Z,26.32
2019-05-21T14:33:18.171Z,26.27
2019-05-21T14:34:18.201Z,26.17
2019-05-21T14:36:20.268Z,26.16
2019-05-21T14:37:20.297Z,26.13
2019-05-21T14:39:22.356Z,26.01
2019-05-21T14:40:31.718Z,25.93
2019-05-21T14:42:14.380Z,25.90
2019-05-21T14:43:14.396Z,25.82
2019-05-21T14:45:16.458Z,25.82
2019-05-21T14:46:16.509Z,25.76
2019-05-21T14:48:08.430Z,25.78
2019-05-21T14:49:08.469Z,25.79
2019-05-21T14:51:00.715Z,25.83
2019-05-21T14:52:00.753Z,25.83
2019-05-21T14:54:02.820Z,25.78
2019-05-21T14:55:03.950Z,25.76
2019-05-21T14:57:04.899Z,25.74
2019-05-21T14:58:04.933Z,25.67
2019-05-21T14:59:57.236Z,25.66
2019-05-21T15:00:57.145Z,25.63
2019-05-21T15:02:49.132Z,25.66
2019-05-21T15:03:49.218Z,25.67
2019-05-21T15:07:22.936Z,25.67
2019-05-21T15:08:22.964Z,25.69
2019-05-21T15:10:16.182Z,25.67
2019-05-21T15:11:16.165Z,25.69
2019-05-21T15:13:09.344Z,25.60
2019-05-21T15:14:09.386Z,25.64
2019-05-21T15:16:02.356Z,25.67
2019-05-21T15:17:02.411Z,25.69
2019-05-21T15:18:55.543Z,25.81
2019-05-21T15:19:55.574Z,25.75
2019-05-21T15:22:00.127Z,25.81
2019-05-21T15:23:00.161Z,25.90
2019-05-21T15:24:00.281Z,25.90
2019-05-21T15:25:00.238Z,26.00
2019-05-21T15:26:00.294Z,25.96
2019-05-21T15:27:00.320Z,26.01
2019-05-21T15:28:00.357Z,26.06
2019-05-21T15:29:00.416Z,26.03
2019-05-21T15:30:00.506Z,26.20
2019-05-21T15:31:00.493Z,26.23
2019-05-21T15:32:00.514Z,26.20
2019-05-21T15:33:00.562Z,26.13
2019-05-21T15:34:00.597Z,26.20
2019-05-21T15:35:00.634Z,26.24
2019-05-21T15:36:00.674Z,26.21
2019-05-21T15:37:00.715Z,26.17
2019-05-21T15:38:00.754Z,26.23
2019-05-21T15:39:00.792Z,26.20
2019-05-21T15:40:00.830Z,26.19
2019-05-21T15:41:10.322Z,26.20